sensor_id;sensor_type;location;lat;lon;timestamp;temperature;humidity
44894;DHT22;30625;52.206;21.030;2023-08-06T00:01:26;19.20;99.90
44894;DHT22;30625;52.206;21.030;2023-08-06T00:03:52;19.20;99.90
44894;DHT22;30625;52.206;21.030;2023-08-06T00:06:17;19.20;99.90
44894;DHT22;30625;52.206;21.030;2023-08-06T00:08:43;19.20;99.90
44894;DHT22;30625;52.206;21.030;2023-08-06T00:11:08;19.20;99.90
44894;DHT22;30625;52.206;21.030;2023-08-06T00:13:34;19.20;99.90
44894;DHT22;30625;52.206;21.030;2023-08-06T00:16:09;19.20;99.90
44894;DHT22;30625;52.206;21.030;2023-08-06T00:18:35;19.20;99.90
44894;DHT22;30625;52.206;21.030;2023-08-06T00:21:00;19.20;99.90
44894;DHT22;30625;52.206;21.030;2023-08-06T00:23:26;19.20;99.90
44894;DHT22;30625;52.206;21.030;2023-08-06T00:25:51;19.20;99.90
44894;DHT22;30625;52.206;21.030;2023-08-06T00:28:17;19.20;99.90
44894;DHT22;30625;52.206;21.030;2023-08-06T00:30:42;19.20;99.90
44894;DHT22;30625;52.206;21.030;2023-08-06T00:33:08;19.30;99.90
44894;DHT22;30625;52.206;21.030;2023-08-06T00:35:33;19.30;99.90
44894;DHT22;30625;52.206;21.030;2023-08-06T00:37:59;19.20;99.90
44894;DHT22;30625;52.206;21.030;2023-08-06T00:40:24;19.30;99.90
44894;DHT22;30625;52.206;21.030;2023-08-06T00:42:50;19.30;99.90
44894;DHT22;30625;52.206;21.030;2023-08-06T00:45:16;19.30;99.90
44894;DHT22;30625;52.206;21.030;2023-08-06T00:47:41;19.20;99.90
44894;DHT22;30625;52.206;21.030;2023-08-06T00:50:07;19.20;99.90
44894;DHT22;30625;52.206;21.030;2023-08-06T00:52:33;19.20;99.90
44894;DHT22;30625;52.206;21.030;2023-08-06T00:54:58;19.20;99.90
44894;DHT22;30625;52.206;21.030;2023-08-06T00:57:24;19.20;99.90
44894;DHT22;30625;52.206;21.030;2023-08-06T00:59:51;19.20;99.90
44894;DHT22;30625;52.206;21.030;2023-08-06T01:02:16;19.20;99.90
44894;DHT22;30625;52.206;21.030;2023-08-06T01:04:42;19.20;99.90
44894;DHT22;30625;52.206;21.030;2023-08-06T01:09:50;19.10;99.90
44894;DHT22;30625;52.206;21.030;2023-08-06T01:17:38;19.10;99.90
44894;DHT22;30625;52.206;21.030;2023-08-06T01:20:04;19.10;99.90
44894;DHT22;30625;52.206;21.030;2023-08-06T01:22:30;19.10;99.90
44894;DHT22;30625;52.206;21.030;2023-08-06T01:24:55;19.10;99.90
44894;DHT22;30625;52.206;21.030;2023-08-06T01:27:33;19.10;99.90
44894;DHT22;30625;52.206;21.030;2023-08-06T01:30:03;19.10;99.90
44894;DHT22;30625;52.206;21.030;2023-08-06T01:32:30;19.10;99.90
44894;DHT22;30625;52.206;21.030;2023-08-06T01:34:57;19.10;99.90
44894;DHT22;30625;52.206;21.030;2023-08-06T01:37:24;19.10;99.90
44894;DHT22;30625;52.206;21.030;2023-08-06T01:39:50;19.10;99.90
44894;DHT22;30625;52.206;21.030;2023-08-06T01:42:15;19.10;99.90
44894;DHT22;30625;52.206;21.030;2023-08-06T01:44:41;19.10;99.90
44894;DHT22;30625;52.206;21.030;2023-08-06T01:47:06;19.00;99.90
44894;DHT22;30625;52.206;21.030;2023-08-06T01:49:32;19.00;99.90
44894;DHT22;30625;52.206;21.030;2023-08-06T01:51:57;19.00;99.90
44894;DHT22;30625;52.206;21.030;2023-08-06T01:54:23;19.00;99.90
44894;DHT22;30625;52.206;21.030;2023-08-06T01:56:48;19.00;99.90
44894;DHT22;30625;52.206;21.030;2023-08-06T01:59:14;19.00;99.90
44894;DHT22;30625;52.206;21.030;2023-08-06T02:01:39;19.10;99.90
44894;DHT22;30625;52.206;21.030;2023-08-06T02:04:05;19.00;99.90
44894;DHT22;30625;52.206;21.030;2023-08-06T02:06:30;19.00;99.90
44894;DHT22;30625;52.206;21.030;2023-08-06T02:08:56;19.00;99.90
44894;DHT22;30625;52.206;21.030;2023-08-06T02:11:22;19.00;99.90
44894;DHT22;30625;52.206;21.030;2023-08-06T02:13:47;19.10;99.90
44894;DHT22;30625;52.206;21.030;2023-08-06T02:16:12;19.00;99.90
44894;DHT22;30625;52.206;21.030;2023-08-06T02:18:38;19.00;99.90
44894;DHT22;30625;52.206;21.030;2023-08-06T02:21:04;19.00;99.90
44894;DHT22;30625;52.206;21.030;2023-08-06T02:23:29;19.10;99.90
44894;DHT22;30625;52.206;21.030;2023-08-06T02:25:58;19.00;99.90
44894;DHT22;30625;52.206;21.030;2023-08-06T02:28:24;19.00;99.90
44894;DHT22;30625;52.206;21.030;2023-08-06T02:30:52;19.00;99.90
44894;DHT22;30625;52.206;21.030;2023-08-06T02:33:18;19.00;99.90
44894;DHT22;30625;52.206;21.030;2023-08-06T02:35:43;19.00;99.90
44894;DHT22;30625;52.206;21.030;2023-08-06T02:38:09;19.00;99.90
44894;DHT22;30625;52.206;21.030;2023-08-06T02:40:34;19.00;99.90
44894;DHT22;30625;52.206;21.030;2023-08-06T02:43:00;19.10;99.90
44894;DHT22;30625;52.206;21.030;2023-08-06T02:45:25;19.10;99.90
44894;DHT22;30625;52.206;21.030;2023-08-06T02:47:51;19.10;99.90
44894;DHT22;30625;52.206;21.030;2023-08-06T02:50:16;19.10;99.90
44894;DHT22;30625;52.206;21.030;2023-08-06T02:52:42;19.10;99.90
44894;DHT22;30625;52.206;21.030;2023-08-06T02:55:07;19.10;99.90
44894;DHT22;30625;52.206;21.030;2023-08-06T02:57:33;19.10;99.90
44894;DHT22;30625;52.206;21.030;2023-08-06T02:59:58;19.20;99.90
44894;DHT22;30625;52.206;21.030;2023-08-06T03:02:24;19.20;99.90
44894;DHT22;30625;52.206;21.030;2023-08-06T03:04:49;19.20;99.90
44894;DHT22;30625;52.206;21.030;2023-08-06T03:07:15;19.20;99.90
44894;DHT22;30625;52.206;21.030;2023-08-06T03:09:40;19.30;99.90
44894;DHT22;30625;52.206;21.030;2023-08-06T03:12:06;19.20;99.90
44894;DHT22;30625;52.206;21.030;2023-08-06T03:14:32;19.20;99.90
44894;DHT22;30625;52.206;21.030;2023-08-06T03:16:57;19.30;99.90
44894;DHT22;30625;52.206;21.030;2023-08-06T03:19:23;19.30;99.90
44894;DHT22;30625;52.206;21.030;2023-08-06T03:21:48;19.30;99.90
44894;DHT22;30625;52.206;21.030;2023-08-06T03:24:14;19.30;99.90
44894;DHT22;30625;52.206;21.030;2023-08-06T03:26:39;19.30;99.90
44894;DHT22;30625;52.206;21.030;2023-08-06T03:29:05;19.30;99.90
44894;DHT22;30625;52.206;21.030;2023-08-06T03:31:30;19.30;99.90
44894;DHT22;30625;52.206;21.030;2023-08-06T03:33:56;19.30;99.90
44894;DHT22;30625;52.206;21.030;2023-08-06T03:36:21;19.30;99.90
44894;DHT22;30625;52.206;21.030;2023-08-06T03:38:47;19.30;99.90
44894;DHT22;30625;52.206;21.030;2023-08-06T03:41:12;19.30;99.90
44894;DHT22;30625;52.206;21.030;2023-08-06T03:43:38;19.40;99.90
44894;DHT22;30625;52.206;21.030;2023-08-06T03:46:03;19.40;99.90
44894;DHT22;30625;52.206;21.030;2023-08-06T03:48:29;19.40;99.90
44894;DHT22;30625;52.206;21.030;2023-08-06T03:50:54;19.40;99.90
44894;DHT22;30625;52.206;21.030;2023-08-06T03:53:20;19.50;99.90
44894;DHT22;30625;52.206;21.030;2023-08-06T03:55:46;19.40;99.90
44894;DHT22;30625;52.206;21.030;2023-08-06T03:58:11;19.50;99.90
44894;DHT22;30625;52.206;21.030;2023-08-06T04:00:37;19.50;99.90
44894;DHT22;30625;52.206;21.030;2023-08-06T04:03:02;19.50;99.90
44894;DHT22;30625;52.206;21.030;2023-08-06T04:05:30;19.50;99.90
44894;DHT22;30625;52.206;21.030;2023-08-06T04:07:56;19.50;99.90
44894;DHT22;30625;52.206;21.030;2023-08-06T04:10:21;19.50;99.90
44894;DHT22;30625;52.206;21.030;2023-08-06T04:12:47;19.50;99.90
44894;DHT22;30625;52.206;21.030;2023-08-06T04:15:12;19.50;99.90
44894;DHT22;30625;52.206;21.030;2023-08-06T04:17:38;19.60;99.90
44894;DHT22;30625;52.206;21.030;2023-08-06T04:20:03;19.60;99.90
44894;DHT22;30625;52.206;21.030;2023-08-06T04:22:29;19.60;99.90
44894;DHT22;30625;52.206;21.030;2023-08-06T04:24:55;19.60;99.90
44894;DHT22;30625;52.206;21.030;2023-08-06T04:27:20;19.60;99.90
44894;DHT22;30625;52.206;21.030;2023-08-06T04:29:46;19.60;99.90
44894;DHT22;30625;52.206;21.030;2023-08-06T04:32:11;19.70;99.90
44894;DHT22;30625;52.206;21.030;2023-08-06T04:34:37;19.70;99.90
44894;DHT22;30625;52.206;21.030;2023-08-06T04:37:03;19.70;99.90
44894;DHT22;30625;52.206;21.030;2023-08-06T04:39:29;19.80;99.90
44894;DHT22;30625;52.206;21.030;2023-08-06T04:41:55;19.80;99.90
44894;DHT22;30625;52.206;21.030;2023-08-06T04:44:20;19.80;99.90
44894;DHT22;30625;52.206;21.030;2023-08-06T04:46:46;19.80;99.90
44894;DHT22;30625;52.206;21.030;2023-08-06T04:49:12;19.90;99.90
44894;DHT22;30625;52.206;21.030;2023-08-06T04:51:37;19.90;99.90
44894;DHT22;30625;52.206;21.030;2023-08-06T04:54:03;20.00;99.90
44894;DHT22;30625;52.206;21.030;2023-08-06T04:56:28;20.10;99.90
44894;DHT22;30625;52.206;21.030;2023-08-06T04:58:54;20.00;99.90
44894;DHT22;30625;52.206;21.030;2023-08-06T05:01:20;20.10;99.90
44894;DHT22;30625;52.206;21.030;2023-08-06T05:03:46;20.10;99.90
44894;DHT22;30625;52.206;21.030;2023-08-06T05:06:12;20.10;99.90
44894;DHT22;30625;52.206;21.030;2023-08-06T05:08:37;20.20;99.90
44894;DHT22;30625;52.206;21.030;2023-08-06T05:11:03;20.20;99.90
44894;DHT22;30625;52.206;21.030;2023-08-06T05:13:28;20.30;99.90
44894;DHT22;30625;52.206;21.030;2023-08-06T05:15:54;20.30;99.90
44894;DHT22;30625;52.206;21.030;2023-08-06T05:18:20;20.40;99.90
44894;DHT22;30625;52.206;21.030;2023-08-06T05:20:45;20.40;99.90
44894;DHT22;30625;52.206;21.030;2023-08-06T05:23:11;20.50;99.90
44894;DHT22;30625;52.206;21.030;2023-08-06T05:25:39;20.50;99.90
44894;DHT22;30625;52.206;21.030;2023-08-06T05:28:05;20.60;99.90
44894;DHT22;30625;52.206;21.030;2023-08-06T05:30:30;20.70;99.90
44894;DHT22;30625;52.206;21.030;2023-08-06T05:32:56;20.70;99.90
44894;DHT22;30625;52.206;21.030;2023-08-06T05:35:22;20.80;99.90
44894;DHT22;30625;52.206;21.030;2023-08-06T05:37:47;20.80;99.90
44894;DHT22;30625;52.206;21.030;2023-08-06T05:40:13;21.00;99.90
44894;DHT22;30625;52.206;21.030;2023-08-06T05:42:39;21.10;99.90
44894;DHT22;30625;52.206;21.030;2023-08-06T05:45:05;21.10;99.90
44894;DHT22;30625;52.206;21.030;2023-08-06T05:47:30;21.20;99.90
44894;DHT22;30625;52.206;21.030;2023-08-06T05:49:56;21.20;99.90
44894;DHT22;30625;52.206;21.030;2023-08-06T05:52:21;21.40;99.90
44894;DHT22;30625;52.206;21.030;2023-08-06T05:54:47;21.50;99.90
44894;DHT22;30625;52.206;21.030;2023-08-06T05:57:12;21.50;99.90
44894;DHT22;30625;52.206;21.030;2023-08-06T05:59:39;21.70;99.90
44894;DHT22;30625;52.206;21.030;2023-08-06T06:02:05;20.10;99.90
44894;DHT22;30625;52.206;21.030;2023-08-06T06:04:31;22.60;99.90
44894;DHT22;30625;52.206;21.030;2023-08-06T06:06:56;24.00;99.90
44894;DHT22;30625;52.206;21.030;2023-08-06T06:09:22;23.70;99.90
44894;DHT22;30625;52.206;21.030;2023-08-06T06:11:47;24.30;99.90
44894;DHT22;30625;52.206;21.030;2023-08-06T06:14:16;24.90;99.90
44894;DHT22;30625;52.206;21.030;2023-08-06T06:16:41;25.50;99.90
44894;DHT22;30625;52.206;21.030;2023-08-06T06:19:07;26.00;99.90
44894;DHT22;30625;52.206;21.030;2023-08-06T06:21:32;26.10;99.90
44894;DHT22;30625;52.206;21.030;2023-08-06T06:23:58;26.00;99.90
44894;DHT22;30625;52.206;21.030;2023-08-06T06:26:23;26.10;99.90
44894;DHT22;30625;52.206;21.030;2023-08-06T06:28:49;26.50;99.90
44894;DHT22;30625;52.206;21.030;2023-08-06T06:31:14;26.70;99.90
44894;DHT22;30625;52.206;21.030;2023-08-06T06:33:40;27.10;99.90
44894;DHT22;30625;52.206;21.030;2023-08-06T06:36:05;27.40;99.90
44894;DHT22;30625;52.206;21.030;2023-08-06T06:38:33;27.40;99.90
44894;DHT22;30625;52.206;21.030;2023-08-06T06:40:58;27.70;99.90
44894;DHT22;30625;52.206;21.030;2023-08-06T06:43:24;27.80;99.90
44894;DHT22;30625;52.206;21.030;2023-08-06T06:45:53;27.90;99.90
44894;DHT22;30625;52.206;21.030;2023-08-06T06:48:22;28.10;99.90
44894;DHT22;30625;52.206;21.030;2023-08-06T06:50:47;28.00;99.90
44894;DHT22;30625;52.206;21.030;2023-08-06T06:53:13;28.40;99.90
44894;DHT22;30625;52.206;21.030;2023-08-06T06:55:39;28.60;99.90
44894;DHT22;30625;52.206;21.030;2023-08-06T06:58:04;28.50;99.90
44894;DHT22;30625;52.206;21.030;2023-08-06T07:00:30;28.50;99.90
44894;DHT22;30625;52.206;21.030;2023-08-06T07:02:55;28.70;99.90
44894;DHT22;30625;52.206;21.030;2023-08-06T07:05:21;29.00;99.90
44894;DHT22;30625;52.206;21.030;2023-08-06T07:07:46;29.50;99.90
44894;DHT22;30625;52.206;21.030;2023-08-06T07:10:12;29.20;99.90
44894;DHT22;30625;52.206;21.030;2023-08-06T07:12:41;28.50;99.90
44894;DHT22;30625;52.206;21.030;2023-08-06T07:15:06;27.70;99.90
44894;DHT22;30625;52.206;21.030;2023-08-06T07:17:32;27.20;99.90
44894;DHT22;30625;52.206;21.030;2023-08-06T07:19:57;28.60;99.90
44894;DHT22;30625;52.206;21.030;2023-08-06T07:22:23;26.10;99.90
44894;DHT22;30625;52.206;21.030;2023-08-06T07:24:49;25.80;99.90
44894;DHT22;30625;52.206;21.030;2023-08-06T07:27:14;25.80;99.90
44894;DHT22;30625;52.206;21.030;2023-08-06T07:29:40;25.70;99.90
44894;DHT22;30625;52.206;21.030;2023-08-06T07:32:06;25.70;99.90
44894;DHT22;30625;52.206;21.030;2023-08-06T07:34:32;25.70;99.90
44894;DHT22;30625;52.206;21.030;2023-08-06T07:36:57;25.70;99.90
44894;DHT22;30625;52.206;21.030;2023-08-06T07:39:23;25.60;99.90
44894;DHT22;30625;52.206;21.030;2023-08-06T07:41:49;25.50;99.90
44894;DHT22;30625;52.206;21.030;2023-08-06T07:44:14;25.50;99.90
44894;DHT22;30625;52.206;21.030;2023-08-06T07:46:40;25.40;99.90
44894;DHT22;30625;52.206;21.030;2023-08-06T07:49:05;25.50;99.90
44894;DHT22;30625;52.206;21.030;2023-08-06T07:51:31;25.50;99.90
44894;DHT22;30625;52.206;21.030;2023-08-06T07:53:56;25.60;99.90
44894;DHT22;30625;52.206;21.030;2023-08-06T07:56:22;25.50;99.90
44894;DHT22;30625;52.206;21.030;2023-08-06T07:58:48;25.50;99.90
44894;DHT22;30625;52.206;21.030;2023-08-06T08:01:13;25.60;99.90
44894;DHT22;30625;52.206;21.030;2023-08-06T08:03:39;25.70;99.90
44894;DHT22;30625;52.206;21.030;2023-08-06T08:06:04;25.80;99.90
44894;DHT22;30625;52.206;21.030;2023-08-06T08:08:30;25.80;99.90
44894;DHT22;30625;52.206;21.030;2023-08-06T08:10:55;25.70;99.90
44894;DHT22;30625;52.206;21.030;2023-08-06T08:13:21;25.70;99.90
44894;DHT22;30625;52.206;21.030;2023-08-06T08:15:46;25.70;99.90
44894;DHT22;30625;52.206;21.030;2023-08-06T08:18:12;25.70;99.90
44894;DHT22;30625;52.206;21.030;2023-08-06T08:20:37;25.70;99.90
44894;DHT22;30625;52.206;21.030;2023-08-06T08:23:03;25.80;99.90
44894;DHT22;30625;52.206;21.030;2023-08-06T08:25:29;25.80;99.90
44894;DHT22;30625;52.206;21.030;2023-08-06T08:27:54;25.90;99.90
44894;DHT22;30625;52.206;21.030;2023-08-06T08:30:20;26.80;99.90
44894;DHT22;30625;52.206;21.030;2023-08-06T08:32:46;26.10;99.90
44894;DHT22;30625;52.206;21.030;2023-08-06T08:35:12;26.10;99.90
44894;DHT22;30625;52.206;21.030;2023-08-06T08:37:41;26.20;99.90
44894;DHT22;30625;52.206;21.030;2023-08-06T08:40:07;26.30;99.90
44894;DHT22;30625;52.206;21.030;2023-08-06T08:42:33;26.00;99.90
44894;DHT22;30625;52.206;21.030;2023-08-06T08:44:58;26.20;99.90
44894;DHT22;30625;52.206;21.030;2023-08-06T08:47:24;26.30;99.90
44894;DHT22;30625;52.206;21.030;2023-08-06T08:49:52;26.50;99.90
44894;DHT22;30625;52.206;21.030;2023-08-06T08:52:19;26.70;99.90
44894;DHT22;30625;52.206;21.030;2023-08-06T08:54:45;26.80;99.90
44894;DHT22;30625;52.206;21.030;2023-08-06T08:57:14;26.80;99.90
44894;DHT22;30625;52.206;21.030;2023-08-06T08:59:39;27.00;99.90
44894;DHT22;30625;52.206;21.030;2023-08-06T09:02:05;27.00;99.90
44894;DHT22;30625;52.206;21.030;2023-08-06T09:04:31;26.90;99.90
44894;DHT22;30625;52.206;21.030;2023-08-06T09:06:57;26.90;99.90
44894;DHT22;30625;52.206;21.030;2023-08-06T09:09:26;27.10;99.90
44894;DHT22;30625;52.206;21.030;2023-08-06T09:11:53;27.20;99.90
44894;DHT22;30625;52.206;21.030;2023-08-06T09:14:20;27.20;99.90
44894;DHT22;30625;52.206;21.030;2023-08-06T09:16:46;27.20;99.90
44894;DHT22;30625;52.206;21.030;2023-08-06T09:19:12;27.40;99.90
44894;DHT22;30625;52.206;21.030;2023-08-06T09:21:38;27.10;99.90
44894;DHT22;30625;52.206;21.030;2023-08-06T09:24:11;27.60;99.90
44894;DHT22;30625;52.206;21.030;2023-08-06T09:26:37;27.60;99.90
44894;DHT22;30625;52.206;21.030;2023-08-06T09:29:04;27.50;99.90
44894;DHT22;30625;52.206;21.030;2023-08-06T09:31:33;27.40;99.90
44894;DHT22;30625;52.206;21.030;2023-08-06T09:33:59;27.50;99.90
44894;DHT22;30625;52.206;21.030;2023-08-06T09:36:26;27.50;99.90
44894;DHT22;30625;52.206;21.030;2023-08-06T09:38:52;27.50;99.90
44894;DHT22;30625;52.206;21.030;2023-08-06T09:41:27;27.60;99.90
44894;DHT22;30625;52.206;21.030;2023-08-06T09:43:55;27.70;99.90
44894;DHT22;30625;52.206;21.030;2023-08-06T09:46:20;27.90;99.90
44894;DHT22;30625;52.206;21.030;2023-08-06T09:48:47;28.00;99.90
44894;DHT22;30625;52.206;21.030;2023-08-06T09:51:13;28.00;99.90
44894;DHT22;30625;52.206;21.030;2023-08-06T09:53:39;28.00;99.90
44894;DHT22;30625;52.206;21.030;2023-08-06T09:56:05;27.90;99.90
44894;DHT22;30625;52.206;21.030;2023-08-06T09:58:31;28.00;99.90
44894;DHT22;30625;52.206;21.030;2023-08-06T10:01:00;28.10;99.90
44894;DHT22;30625;52.206;21.030;2023-08-06T10:03:27;28.20;99.90
44894;DHT22;30625;52.206;21.030;2023-08-06T10:05:53;28.30;99.90
44894;DHT22;30625;52.206;21.030;2023-08-06T10:08:20;28.60;99.90
44894;DHT22;30625;52.206;21.030;2023-08-06T10:10:47;28.90;99.90
44894;DHT22;30625;52.206;21.030;2023-08-06T10:13:13;28.00;99.90
44894;DHT22;30625;52.206;21.030;2023-08-06T10:15:39;28.90;99.90
44894;DHT22;30625;52.206;21.030;2023-08-06T10:18:05;28.80;99.90
44894;DHT22;30625;52.206;21.030;2023-08-06T10:20:35;28.80;99.90
44894;DHT22;30625;52.206;21.030;2023-08-06T10:23:04;27.50;99.90
44894;DHT22;30625;52.206;21.030;2023-08-06T10:25:31;28.70;99.90
44894;DHT22;30625;52.206;21.030;2023-08-06T10:27:58;28.80;99.90
44894;DHT22;30625;52.206;21.030;2023-08-06T10:30:24;28.70;99.90
44894;DHT22;30625;52.206;21.030;2023-08-06T10:32:51;28.80;99.90
44894;DHT22;30625;52.206;21.030;2023-08-06T10:35:59;28.80;99.90
44894;DHT22;30625;52.206;21.030;2023-08-06T10:38:07;28.70;99.90
44894;DHT22;30625;52.206;21.030;2023-08-06T10:40:33;28.80;99.90
44894;DHT22;30625;52.206;21.030;2023-08-06T10:42:59;28.90;99.90
44894;DHT22;30625;52.206;21.030;2023-08-06T10:45:25;28.90;99.90
44894;DHT22;30625;52.206;21.030;2023-08-06T10:47:54;29.00;99.90
44894;DHT22;30625;52.206;21.030;2023-08-06T10:50:19;29.20;99.90
44894;DHT22;30625;52.206;21.030;2023-08-06T10:52:45;29.20;99.90
44894;DHT22;30625;52.206;21.030;2023-08-06T10:55:12;29.20;99.90
44894;DHT22;30625;52.206;21.030;2023-08-06T10:57:38;29.30;99.90
44894;DHT22;30625;52.206;21.030;2023-08-06T11:00:04;29.50;99.90
44894;DHT22;30625;52.206;21.030;2023-08-06T11:02:33;29.60;99.90
44894;DHT22;30625;52.206;21.030;2023-08-06T11:04:58;29.80;99.40
44894;DHT22;30625;52.206;21.030;2023-08-06T11:07:29;30.00;99.70
44894;DHT22;30625;52.206;21.030;2023-08-06T11:10:00;30.00;98.80
44894;DHT22;30625;52.206;21.030;2023-08-06T11:12:26;30.00;99.30
44894;DHT22;30625;52.206;21.030;2023-08-06T11:14:53;30.10;99.00
44894;DHT22;30625;52.206;21.030;2023-08-06T11:17:18;30.10;99.10
44894;DHT22;30625;52.206;21.030;2023-08-06T11:19:44;30.20;99.00
44894;DHT22;30625;52.206;21.030;2023-08-06T11:22:09;30.30;99.50
44894;DHT22;30625;52.206;21.030;2023-08-06T11:24:36;30.20;98.50
44894;DHT22;30625;52.206;21.030;2023-08-06T11:27:02;30.10;98.20
44894;DHT22;30625;52.206;21.030;2023-08-06T11:29:27;29.90;98.00
44894;DHT22;30625;52.206;21.030;2023-08-06T11:31:53;29.70;98.40
44894;DHT22;30625;52.206;21.030;2023-08-06T11:34:24;29.40;98.70
44894;DHT22;30625;52.206;21.030;2023-08-06T11:36:50;29.40;98.30
44894;DHT22;30625;52.206;21.030;2023-08-06T11:39:16;29.50;98.40
44894;DHT22;30625;52.206;21.030;2023-08-06T11:41:41;29.50;98.30
44894;DHT22;30625;52.206;21.030;2023-08-06T11:44:10;29.60;97.90
44894;DHT22;30625;52.206;21.030;2023-08-06T11:46:51;29.70;97.70
44894;DHT22;30625;52.206;21.030;2023-08-06T11:49:42;29.80;97.60
44894;DHT22;30625;52.206;21.030;2023-08-06T11:52:22;30.00;97.40
44894;DHT22;30625;52.206;21.030;2023-08-06T11:57:29;30.10;98.30
44894;DHT22;30625;52.206;21.030;2023-08-06T12:00:00;30.10;96.80
44894;DHT22;30625;52.206;21.030;2023-08-06T12:02:26;30.00;96.20
44894;DHT22;30625;52.206;21.030;2023-08-06T12:07:39;30.00;95.40
44894;DHT22;30625;52.206;21.030;2023-08-06T12:10:05;30.00;96.30
44894;DHT22;30625;52.206;21.030;2023-08-06T12:12:30;29.90;95.80
44894;DHT22;30625;52.206;21.030;2023-08-06T12:14:56;29.80;95.20
44894;DHT22;30625;52.206;21.030;2023-08-06T12:17:22;29.70;95.90
44894;DHT22;30625;52.206;21.030;2023-08-06T12:19:48;29.60;96.20
44894;DHT22;30625;52.206;21.030;2023-08-06T12:22:14;29.60;96.10
44894;DHT22;30625;52.206;21.030;2023-08-06T12:24:43;29.50;95.90
44894;DHT22;30625;52.206;21.030;2023-08-06T12:27:09;29.40;96.20
44894;DHT22;30625;52.206;21.030;2023-08-06T12:29:34;29.20;96.80
44894;DHT22;30625;52.206;21.030;2023-08-06T12:32:00;29.10;96.70
44894;DHT22;30625;52.206;21.030;2023-08-06T12:34:26;29.10;96.70
44894;DHT22;30625;52.206;21.030;2023-08-06T12:36:51;29.00;97.00
44894;DHT22;30625;52.206;21.030;2023-08-06T12:39:17;28.90;97.10
44894;DHT22;30625;52.206;21.030;2023-08-06T12:41:42;28.70;97.60
44894;DHT22;30625;52.206;21.030;2023-08-06T12:44:09;28.70;97.30
44894;DHT22;30625;52.206;21.030;2023-08-06T12:46:34;28.60;97.50
44894;DHT22;30625;52.206;21.030;2023-08-06T12:49:00;28.50;97.70
44894;DHT22;30625;52.206;21.030;2023-08-06T12:51:25;28.50;97.70
44894;DHT22;30625;52.206;21.030;2023-08-06T12:53:51;28.40;97.60
44894;DHT22;30625;52.206;21.030;2023-08-06T12:56:16;28.40;97.70
44894;DHT22;30625;52.206;21.030;2023-08-06T12:58:42;28.30;98.00
44894;DHT22;30625;52.206;21.030;2023-08-06T13:01:07;28.20;98.90
44894;DHT22;30625;52.206;21.030;2023-08-06T13:03:33;28.10;98.20
44894;DHT22;30625;52.206;21.030;2023-08-06T13:05:59;27.90;98.70
44894;DHT22;30625;52.206;21.030;2023-08-06T13:08:30;27.90;99.20
44894;DHT22;30625;52.206;21.030;2023-08-06T13:10:56;27.70;99.90
44894;DHT22;30625;52.206;21.030;2023-08-06T13:13:21;27.40;99.90
44894;DHT22;30625;52.206;21.030;2023-08-06T13:15:47;26.80;99.90
44894;DHT22;30625;52.206;21.030;2023-08-06T13:18:12;26.00;99.90
44894;DHT22;30625;52.206;21.030;2023-08-06T13:20:38;25.60;99.90
44894;DHT22;30625;52.206;21.030;2023-08-06T13:23:05;25.50;99.90
44894;DHT22;30625;52.206;21.030;2023-08-06T13:25:31;25.50;99.90
44894;DHT22;30625;52.206;21.030;2023-08-06T13:28:02;25.50;99.90
44894;DHT22;30625;52.206;21.030;2023-08-06T13:30:27;25.60;99.90
44894;DHT22;30625;52.206;21.030;2023-08-06T13:32:53;25.90;99.90
44894;DHT22;30625;52.206;21.030;2023-08-06T13:35:20;26.20;99.90
44894;DHT22;30625;52.206;21.030;2023-08-06T13:37:46;26.30;99.90
44894;DHT22;30625;52.206;21.030;2023-08-06T13:40:13;26.60;99.90
44894;DHT22;30625;52.206;21.030;2023-08-06T13:42:39;26.90;99.90
44894;DHT22;30625;52.206;21.030;2023-08-06T13:45:05;27.10;99.90
44894;DHT22;30625;52.206;21.030;2023-08-06T13:47:31;27.30;99.90
44894;DHT22;30625;52.206;21.030;2023-08-06T13:49:56;27.30;99.90
44894;DHT22;30625;52.206;21.030;2023-08-06T13:52:22;27.40;99.90
44894;DHT22;30625;52.206;21.030;2023-08-06T13:54:48;27.50;99.90
44894;DHT22;30625;52.206;21.030;2023-08-06T13:57:13;27.50;99.90
44894;DHT22;30625;52.206;21.030;2023-08-06T13:59:39;27.40;99.90
44894;DHT22;30625;52.206;21.030;2023-08-06T14:02:04;27.40;99.90
44894;DHT22;30625;52.206;21.030;2023-08-06T14:04:30;27.30;99.90
44894;DHT22;30625;52.206;21.030;2023-08-06T14:06:55;27.20;99.90
44894;DHT22;30625;52.206;21.030;2023-08-06T14:09:21;27.30;99.90
44894;DHT22;30625;52.206;21.030;2023-08-06T14:11:46;27.50;99.90
44894;DHT22;30625;52.206;21.030;2023-08-06T14:14:12;27.60;99.90
44894;DHT22;30625;52.206;21.030;2023-08-06T14:16:38;27.80;99.90
44894;DHT22;30625;52.206;21.030;2023-08-06T14:19:03;27.90;99.90
44894;DHT22;30625;52.206;21.030;2023-08-06T14:21:29;27.90;99.90
44894;DHT22;30625;52.206;21.030;2023-08-06T14:23:54;27.90;99.90
44894;DHT22;30625;52.206;21.030;2023-08-06T14:26:20;27.90;99.90
44894;DHT22;30625;52.206;21.030;2023-08-06T14:28:45;27.80;99.90
44894;DHT22;30625;52.206;21.030;2023-08-06T14:31:11;27.80;99.90
44894;DHT22;30625;52.206;21.030;2023-08-06T14:33:37;27.90;99.90
44894;DHT22;30625;52.206;21.030;2023-08-06T14:36:03;28.00;99.90
44894;DHT22;30625;52.206;21.030;2023-08-06T14:38:28;28.00;99.90
44894;DHT22;30625;52.206;21.030;2023-08-06T14:40:54;28.00;99.90
44894;DHT22;30625;52.206;21.030;2023-08-06T14:43:19;28.10;99.90
44894;DHT22;30625;52.206;21.030;2023-08-06T14:45:45;28.10;99.90
44894;DHT22;30625;52.206;21.030;2023-08-06T14:48:10;28.10;99.90
44894;DHT22;30625;52.206;21.030;2023-08-06T14:50:36;28.10;99.80
44894;DHT22;30625;52.206;21.030;2023-08-06T14:53:02;28.00;99.40
44894;DHT22;30625;52.206;21.030;2023-08-06T14:55:27;27.90;99.80
44894;DHT22;30625;52.206;21.030;2023-08-06T14:57:53;27.90;99.90
44894;DHT22;30625;52.206;21.030;2023-08-06T15:00:19;27.80;99.70
44894;DHT22;30625;52.206;21.030;2023-08-06T15:02:45;27.70;99.30
44894;DHT22;30625;52.206;21.030;2023-08-06T15:05:11;27.60;99.90
44894;DHT22;30625;52.206;21.030;2023-08-06T15:07:37;27.40;99.90
44894;DHT22;30625;52.206;21.030;2023-08-06T15:10:04;27.10;99.90
44894;DHT22;30625;52.206;21.030;2023-08-06T15:12:30;27.00;99.90
44894;DHT22;30625;52.206;21.030;2023-08-06T15:14:56;27.00;99.90
44894;DHT22;30625;52.206;21.030;2023-08-06T15:17:22;26.80;99.90
44894;DHT22;30625;52.206;21.030;2023-08-06T15:19:48;26.80;99.90
44894;DHT22;30625;52.206;21.030;2023-08-06T15:22:14;26.20;99.90